Meath Environmental Platform

Observations for Trim Patrick St

Time AQI Temp °C Hum % Pres Pa CO μg/m³ H₂S μg/m³ NO μg/m³ NO₂ μg/m³ O₃ μg/m³ SO₂ μg/m³ PM1 μg/m³ PM2.5 μg/m³ PM10 μg/m³
Thursday 6 August 2026
02:12 2 13.3 74 38,460 0.27 0 3.5 7.82 32.78 0 6.29 10.56 11.62
02:11 2 13.3 74 38,460 0.26 1.68 3.54 11.62 37.45 0 7.14 11.32 12.45
02:10 2 13.3 74 38,460 0.27 1.08 3.6 13.02 48.92 0 6.29 9.16 10.08
02:09 2 13.3 74 38,460 0.26 0.9 3.61 10.04 30.02 0 5.43 10.58 11.63
02:08 2 13.3 74 38,460 0.27 0.2 3.57 12.12 47.55 0 3.71 9.18 10.09
02:07 2 13.3 74 38,460 0.26 0.02 3.55 9.14 29.5 0 4.57 8.47 9.32
02:06 2 13.4 74 38,460 0.25 0.1 3.49 10.81 33.56 0 4.57 8.44 9.28
02:05 2 13.4 74 38,460 0.26 0.28 3.41 11.56 34.38 0 3.71 7.05 7.76
02:04 2 13.4 74 38,460 0.24 0 3.4 8.74 33.83 0 4.57 8.48 9.33
02:03 2 13.4 74 38,460 0.24 0.82 3.43 10.25 34.95 0 4.57 7.75 8.53
02:02 2 13.4 74 38,460 0.25 0.82 3.44 11.32 39.64 0 3.71 8.49 9.34
02:01 2 13.4 74 38,460 0.24 0.54 3.46 10.04 31.52 0 2.86 7.76 8.54
02:00 2 13.4 74 38,460 0.24 0.7 3.48 11.05 37.6 0 3.71 7.76 8.53
01:59 2 13.5 73 38,460 0.23 0.23 3.36 10.97 39.88 0 3.71 7.82 8.6
01:58 2 13.5 74 38,460 0.23 0.2 3.3 9.91 33.96 0 2.86 6.36 6.99
01:57 2 13.5 73 38,460 0.24 0.57 3.32 11.55 40.45 0 3.71 7.8 8.58
01:56 2 13.5 73 38,460 0.24 0.26 3.27 11.03 35.59 0 3.71 7.09 7.79
01:55 2 13.5 74 38,460 0.24 0.93 3.38 10.26 34.86 0 2.86 7.07 7.77
01:54 2 13.5 73 38,460 0.24 0.8 3.56 11.55 41.55 0 2.86 7.09 7.79
01:53 2 13.6 74 38,460 0.23 0.8 3.54 10.68 35.54 0 2.86 7.07 7.78